createdAt,value
2022-12-20T00:01:21.226Z,14.30
2022-12-20T00:06:24.720Z,15.20
2022-12-20T00:11:28.358Z,13.20
2022-12-20T00:16:31.747Z,12.70
2022-12-20T00:21:35.135Z,13.00
2022-12-20T00:26:39.140Z,13.00
2022-12-20T00:31:42.585Z,13.30
2022-12-20T00:36:46.257Z,11.80
2022-12-20T00:41:49.672Z,12.80
2022-12-20T00:46:53.138Z,11.70
2022-12-20T00:51:56.750Z,12.00
2022-12-20T00:57:00.176Z,11.60
2022-12-20T01:02:03.676Z,11.40
2022-12-20T01:07:07.542Z,10.50
2022-12-20T01:12:11.372Z,10.80
2022-12-20T01:17:15.437Z,10.30
2022-12-20T01:22:18.864Z,10.40
2022-12-20T01:27:22.367Z,10.60
2022-12-20T01:32:25.734Z,9.80
2022-12-20T01:37:29.774Z,9.60
2022-12-20T01:42:33.227Z,9.50
2022-12-20T01:47:36.623Z,10.00
2022-12-20T01:52:40.005Z,8.40
2022-12-20T01:57:43.481Z,9.20
2022-12-20T02:02:49.878Z,8.70
2022-12-20T02:07:53.513Z,9.10
2022-12-20T02:12:56.902Z,9.20
2022-12-20T02:18:00.311Z,8.10
2022-12-20T02:23:04.145Z,8.30
2022-12-20T02:28:07.547Z,8.20
2022-12-20T02:33:10.951Z,9.00
2022-12-20T02:38:14.350Z,7.90
2022-12-20T02:43:31.708Z,7.70
2022-12-20T02:48:35.696Z,7.90
2022-12-20T02:53:39.111Z,7.50
2022-12-20T02:58:42.528Z,7.80
2022-12-20T03:03:45.990Z,7.50
2022-12-20T03:08:49.550Z,8.00
2022-12-20T03:13:53.015Z,7.20
2022-12-20T03:18:56.489Z,6.90
2022-12-20T03:23:59.895Z,6.70
2022-12-20T03:29:03.381Z,7.30
2022-12-20T03:34:06.773Z,7.90
2022-12-20T03:39:10.228Z,7.50
2022-12-20T03:44:13.631Z,7.00
2022-12-20T03:49:17.130Z,6.90
2022-12-20T03:54:20.546Z,6.90
2022-12-20T03:59:23.945Z,7.20
2022-12-20T04:04:27.393Z,7.00
2022-12-20T04:09:30.849Z,7.40
2022-12-20T04:14:34.327Z,7.00
2022-12-20T04:19:37.718Z,6.70
2022-12-20T04:24:41.138Z,6.80
2022-12-20T04:29:44.651Z,6.80
2022-12-20T04:34:48.147Z,7.10
2022-12-20T04:39:51.557Z,7.00
2022-12-20T04:44:54.952Z,6.30
2022-12-20T04:49:58.384Z,7.30
2022-12-20T04:55:03.923Z,6.80
2022-12-20T05:00:07.343Z,6.70
2022-12-20T05:05:10.757Z,6.80
2022-12-20T05:10:14.193Z,6.60
2022-12-20T05:15:17.703Z,6.20
2022-12-20T05:20:21.376Z,7.00
2022-12-20T05:25:42.358Z,7.60
2022-12-20T05:30:45.981Z,6.90
2022-12-20T05:35:49.375Z,7.30
2022-12-20T05:40:52.749Z,7.00
2022-12-20T05:45:56.197Z,6.40
2022-12-20T05:50:59.695Z,6.80
2022-12-20T05:56:03.137Z,6.40
2022-12-20T06:01:06.597Z,6.30
2022-12-20T06:06:14.655Z,6.70
2022-12-20T06:11:19.839Z,6.30
2022-12-20T06:16:25.600Z,6.10
2022-12-20T06:21:29.487Z,6.70
2022-12-20T06:26:36.292Z,6.30
2022-12-20T06:31:39.780Z,7.00
2022-12-20T06:36:43.240Z,7.60
2022-12-20T06:41:46.682Z,6.80
2022-12-20T06:46:50.056Z,7.20
2022-12-20T06:51:53.469Z,7.20
2022-12-20T06:56:56.906Z,7.30
2022-12-20T07:02:00.752Z,7.50
2022-12-20T07:07:04.386Z,7.40
2022-12-20T07:27:13.022Z,8.10
2022-12-20T07:32:16.647Z,7.40
2022-12-20T07:37:20.456Z,7.90
2022-12-20T07:42:31.831Z,7.80
2022-12-20T07:47:37.454Z,7.10
2022-12-20T07:52:41.082Z,7.60
2022-12-20T07:57:44.653Z,7.10
2022-12-20T08:02:48.402Z,7.80
2022-12-20T08:07:56.955Z,7.80
2022-12-20T08:13:02.675Z,7.50
2022-12-20T08:18:06.546Z,7.10
2022-12-20T08:23:10.001Z,7.40
2022-12-20T08:28:13.602Z,7.50
2022-12-20T08:33:17.079Z,8.10
2022-12-20T08:38:20.533Z,7.60
2022-12-20T08:43:24.682Z,7.10
2022-12-20T08:48:28.157Z,7.70
2022-12-20T08:53:32.611Z,9.60
2022-12-20T08:58:36.095Z,8.30
2022-12-20T09:03:39.597Z,9.40
2022-12-20T09:08:43.268Z,10.80
2022-12-20T09:13:46.756Z,11.00
2022-12-20T09:18:50.611Z,10.70
2022-12-20T09:23:54.293Z,10.70
2022-12-20T09:28:57.784Z,11.40
2022-12-20T09:42:54.357Z,10.10
2022-12-20T09:47:57.888Z,9.50
2022-12-20T09:53:01.359Z,9.90
2022-12-20T09:58:04.943Z,10.20
2022-12-20T10:03:10.401Z,9.50
2022-12-20T10:08:15.569Z,15.30
2022-12-20T10:18:22.604Z,12.60
2022-12-20T10:23:32.782Z,11.30
2022-12-20T10:28:37.103Z,12.70
2022-12-20T10:33:40.630Z,11.50
2022-12-20T10:38:44.069Z,11.90
2022-12-20T10:43:48.032Z,11.80
2022-12-20T10:48:52.005Z,12.30
2022-12-20T10:53:55.610Z,11.50
2022-12-20T10:58:59.277Z,12.80
2022-12-20T11:04:02.952Z,12.60
2022-12-20T11:09:23.535Z,11.80
2022-12-20T11:14:28.512Z,11.50
2022-12-20T11:19:35.090Z,10.90
2022-12-20T11:24:38.635Z,11.20
2022-12-20T11:29:42.213Z,12.60
2022-12-20T11:34:46.790Z,10.80
2022-12-20T11:39:50.308Z,10.40
2022-12-20T11:45:03.511Z,10.20
2022-12-20T11:50:12.244Z,10.50
2022-12-20T11:55:15.887Z,10.50
2022-12-20T12:00:19.511Z,10.30
2022-12-20T12:05:23.218Z,10.50
2022-12-20T12:10:27.069Z,9.70
2022-12-20T12:15:31.875Z,9.60
2022-12-20T12:20:35.486Z,10.30
2022-12-20T12:25:39.102Z,9.70
2022-12-20T12:30:42.755Z,9.30
2022-12-20T12:35:46.382Z,9.10
2022-12-20T12:40:52.847Z,9.70
2022-12-20T12:45:57.468Z,9.30
2022-12-20T12:51:02.697Z,9.70
2022-12-20T12:56:34.405Z,9.20
2022-12-20T13:01:30.371Z,9.70
2022-12-20T13:06:35.609Z,9.10
2022-12-20T13:11:44.230Z,10.20
2022-12-20T13:22:15.000Z,8.90
2022-12-20T13:27:18.672Z,10.20
2022-12-20T13:32:22.235Z,9.20
2022-12-20T13:37:25.794Z,9.00
2022-12-20T13:42:29.377Z,8.60
2022-12-20T13:47:33.259Z,8.90
2022-12-20T13:52:36.960Z,9.20
2022-12-20T13:57:40.510Z,8.60
2022-12-20T14:02:44.397Z,8.30
2022-12-20T14:07:48.375Z,8.90
2022-12-20T14:12:52.442Z,9.30
2022-12-20T14:17:56.108Z,8.90
2022-12-20T14:23:05.016Z,8.80
2022-12-20T14:28:09.984Z,9.00
2022-12-20T14:33:13.903Z,8.50
2022-12-20T14:38:17.617Z,12.20
2022-12-20T14:43:21.348Z,10.10
2022-12-20T14:48:24.897Z,10.80
2022-12-20T14:53:29.013Z,10.20
2022-12-20T14:58:33.434Z,9.70
2022-12-20T15:03:37.248Z,10.30
2022-12-20T15:08:40.964Z,9.30
2022-12-20T15:13:45.533Z,10.50
2022-12-20T15:18:49.143Z,10.50
2022-12-20T15:23:52.780Z,10.30
2022-12-20T15:28:56.361Z,10.50
2022-12-20T15:34:00.624Z,10.30
2022-12-20T15:39:13.356Z,10.20
2022-12-20T15:44:17.712Z,9.90
2022-12-20T15:49:21.362Z,10.00
2022-12-20T15:54:27.354Z,10.80
2022-12-20T16:04:55.228Z,9.60
2022-12-20T16:09:58.936Z,10.20
2022-12-20T16:15:02.563Z,10.00
2022-12-20T16:20:06.222Z,10.70
2022-12-20T16:25:12.860Z,10.60
2022-12-20T16:35:23.950Z,10.70
2022-12-20T16:40:28.031Z,11.40
2022-12-20T16:50:35.920Z,11.70
2022-12-20T16:55:40.145Z,11.40
2022-12-20T17:00:44.126Z,11.30
2022-12-20T17:05:47.944Z,11.30
2022-12-20T17:10:51.847Z,10.70
2022-12-20T17:15:55.564Z,11.00
2022-12-20T17:20:59.146Z,10.80
2022-12-20T17:26:02.692Z,10.80
2022-12-20T17:31:08.402Z,12.00
2022-12-20T17:36:12.287Z,11.60
2022-12-20T17:41:15.853Z,11.20
2022-12-20T17:46:21.489Z,11.30
2022-12-20T17:51:25.136Z,12.50
2022-12-20T17:56:28.716Z,11.40
2022-12-20T18:01:32.397Z,11.50
2022-12-20T18:06:37.547Z,13.00
2022-12-20T18:11:41.195Z,12.40
2022-12-20T18:16:44.922Z,12.60
2022-12-20T18:21:48.513Z,13.00
2022-12-20T18:26:52.153Z,13.70
2022-12-20T18:31:55.825Z,14.60
2022-12-20T18:37:01.793Z,15.10
2022-12-20T18:42:05.527Z,14.20
2022-12-20T18:47:09.119Z,13.10
2022-12-20T18:52:12.763Z,14.30
2022-12-20T18:57:16.432Z,16.50
2022-12-20T19:02:20.422Z,14.20
2022-12-20T19:07:24.111Z,13.60
2022-12-20T19:12:27.685Z,14.20
2022-12-20T19:17:31.394Z,13.80
2022-12-20T19:22:35.012Z,13.90
2022-12-20T19:27:38.559Z,12.90
2022-12-20T19:32:42.159Z,13.00
2022-12-20T19:37:45.721Z,13.10
2022-12-20T19:42:49.276Z,13.50
2022-12-20T19:47:54.040Z,13.70
2022-12-20T19:52:57.791Z,12.40
2022-12-20T19:58:01.386Z,13.90
2022-12-20T20:03:05.213Z,13.10
2022-12-20T20:08:09.062Z,13.50
2022-12-20T20:13:12.611Z,12.90
2022-12-20T20:18:16.696Z,13.20
2022-12-20T20:23:20.363Z,14.60
2022-12-20T20:28:28.130Z,15.90
2022-12-20T20:33:35.848Z,15.90
2022-12-20T20:38:39.426Z,18.20
2022-12-20T20:43:42.987Z,17.40
2022-12-20T20:48:46.580Z,16.70
2022-12-20T20:53:50.256Z,17.70
2022-12-20T20:59:05.853Z,20.50
2022-12-20T21:04:11.945Z,17.70
2022-12-20T21:09:15.591Z,21.90
2022-12-20T21:14:36.227Z,20.60
2022-12-20T21:19:42.738Z,18.00
2022-12-20T21:24:46.353Z,18.20
2022-12-20T21:29:49.924Z,19.00
2022-12-20T21:34:54.520Z,19.80
2022-12-20T21:39:58.091Z,24.00
2022-12-20T21:45:01.705Z,29.20
2022-12-20T21:50:05.331Z,34.80
2022-12-20T21:55:08.931Z,35.40
2022-12-20T22:00:12.580Z,23.40
2022-12-20T22:05:16.143Z,24.50
2022-12-20T22:10:19.748Z,25.40
2022-12-20T22:15:23.333Z,30.90
2022-12-20T22:20:26.909Z,35.90
2022-12-20T22:25:30.484Z,33.80
2022-12-20T22:30:34.513Z,29.60
2022-12-20T22:35:38.077Z,30.50
2022-12-20T22:40:41.820Z,26.40
2022-12-20T22:45:45.464Z,23.80
2022-12-20T22:50:49.102Z,21.80
2022-12-20T22:55:52.622Z,22.70
2022-12-20T23:00:56.159Z,21.10
2022-12-20T23:05:59.682Z,21.10
2022-12-20T23:11:21.004Z,18.50
2022-12-20T23:16:24.993Z,18.70
2022-12-20T23:21:46.301Z,17.90
2022-12-20T23:26:49.841Z,18.80
2022-12-20T23:31:53.579Z,17.20
2022-12-20T23:36:57.710Z,16.20
2022-12-20T23:42:01.364Z,17.90
2022-12-20T23:47:04.912Z,15.90
2022-12-20T23:52:08.506Z,14.90
2022-12-20T23:57:12.436Z,15.80
